Paris, TN (38242)

7:01 PM CDT on August 25, 2016 (GMT -0500)
PriWeather Paris, TN | | Change Station

Elev 517 ft 36.28 °N, 88.30 °W | Updated 22 seconds ago

Clear
Clear
82.1 °F
Feels Like 88 °F
N
0.0
Wind Variable Wind from SW
Gusts 0.0 mph

Today
High -- | Low -- °F
--% Chance of Precip.
Yesterday
High -- | Low -- °F
Precip. -- in
Pressure 30.06 in
Visibility 10.0 miles
Clouds Clear
Heat Index 88 °F
Dew Point 74 °F
Humidity 76%
Rainfall 0.00 in
Snow Depth Not available.
6:19 AM 7:30 PM
Last Quarter, 40% visible
METAR KCEY 252355Z AUTO 19004KT 10SM CLR 29/25 A3006 RMK AO1
Pressure 30.06 in
Visibility 10.0 miles
Clouds Clear
Heat Index 88 °F
Dew Point 74 °F
Humidity 76%
Rainfall 0.00 in
Snow Depth Not available.
6:19 AM 7:30 PM
Last Quarter, 40% visible
METAR KCEY 252355Z AUTO 19004KT 10SM CLR 29/25 A3006 RMK AO1
A tropical disturbance pushing toward the Bahamas, is expected to develop into a tropical depression or storm, and will likely target Florida and the Gulf Coast this weekend into next week.

Right now, the disturbance remains a broad area of low pressure pushing through the Dominican Republic and Haiti, headed toward the southeast Bahamas. Rainfall totals over 3 inches (with locally higher amounts) are expected in HispaƱiola, particularly over elevated terrain.

10-Day Weather Forecast

Almanac

Astronomy

Aug. 25, 2016 Rise Set
Actual Time
Civil Twilight
Nautical Twilight
Astronomical Twilight
Moon
Length of Visible Light
Length of Day
Tomorrow will be .
, % of the Moon is Illuminated

Today's Extremes

State Highs State Lows

Community

WunderPhotos

Upload Photos

1,934,970 photos uploaded!

WunderBlog® & News

Nearby

Air Quality

  Air Quality AQ Index Pollutant
Not available.

Snow Depth

Station Depth Elevation

Earthquake Activity

City Distance Mag. Time & Date
Minimum magnitude displayed is 2.5.

Coastal Water Temperatures

Place Temperature

Stations

Nearby Weather Stations

Station Location Temp. Windchill Dew Point Humidity Wind Precip. Elev Updated Type
                   

Watches & Warnings

There are currently no watches in effect.